METAR AND TAF INFORMATION
METAR FOR LSZH
ADDS - METARS form results

(1922 UTC 26 April 2018)
Data provider http://aviationweather.gov/adds/metars/
 
METAR text: LSZH 261920Z 21002KT 9999 FEW061 BKN071 11/04 Q1019 NOSIG
Conditions at: LSZH (ZURICH-KLOTEN (A, CH) observed 1920 UTC 26 April 2018
Temperature: 11.0°C (52°F)
Dewpoint: 4.0°C (39°F) [RH = 62%]
Pressure (altimeter): 30.09 inches Hg (1019.0 mb)
Winds: from the SSW (210 degrees) at 2 MPH (2 knots; 1.0 m/s)
Visibility: 6 or more miles (10+ km)
Ceiling: 7100 feet AGL
Clouds: few clouds at 6100 feet AGL
broken clouds at 7100 feet AGL
Weather: no significant weather observed at this time

METAR text: LSZH 261850Z 20003KT 9999 FEW064 BKN068 12/04 Q1019 NOSIG
Conditions at: LSZH (ZURICH-KLOTEN (A, CH) observed 1850 UTC 26 April 2018
Temperature: 12.0°C (54°F)
Dewpoint: 4.0°C (39°F) [RH = 58%]
Pressure (altimeter): 30.09 inches Hg (1019.0 mb)
Winds: from the SSW (200 degrees) at 3 MPH (3 knots; 1.6 m/s)
Visibility: 6 or more miles (10+ km)
Ceiling: 6800 feet AGL
Clouds: few clouds at 6400 feet AGL
broken clouds at 6800 feet AGL
Weather: no significant weather observed at this time

Forecast for: LSZH (ZURICH-KLOTEN (A, CH)
Text: TAF LSZH 261725Z 2618/2724 23006KT 9999 FEW040 BKN070 TX23/2714Z TN04/2706Z
Forecast period: 1800 to 2200 UTC 26 April 2018
Forecast type: FROM: standard forecast or significant change
Winds: from the SW (230 degrees) at 7 MPH (6 knots; 3.1 m/s)
Visibility: 6 or more miles (10+ km)
Ceiling: 7000 feet AGL
Clouds: few clouds at 4000 feet AGL
broken clouds at 7000 feet AGL
Weather: no significant weather forecast for this period
Forecast for: LSZH (ZURICH-KLOTEN (A, CH)
Text: TAF LSZH 261725Z 2618/2724 23006KT 9999 FEW040 BKN070 TX23/2714Z TN04/2706Z
Forecast period: 1800 to 2200 UTC 26 April 2018
Forecast type: FROM: standard forecast or significant change
Winds: from the SW (230 degrees) at 7 MPH (6 knots; 3.1 m/s)
Visibility: 6 or more miles (10+ km)
Ceiling: 7000 feet AGL
Clouds: few clouds at 4000 feet AGL
broken clouds at 7000 feet AGL
Weather: no significant weather forecast for this period
Forecast for: LSZH (ZURICH-KLOTEN (A, CH)
Text: TAF LSZH 261725Z 2618/2724 23006KT 9999 FEW040 BKN070 TX23/2714Z TN04/2706Z
Forecast period: 2200 UTC 26 April 2018 to 0700 UTC 27 April 2018
Forecast type: BECOMING: Conditions expected to become as follows by 0100 UTC 27 April 2018
Winds: from the SW (230 degrees) at 7 MPH (6 knots; 3.1 m/s)
Visibility: 6 or more miles (10+ km)
Weather: NSW  (no significant weather)
Forecast for: LSZH (ZURICH-KLOTEN (A, CH)
Text: TAF LSZH 261725Z 2618/2724 23006KT 9999 FEW040 BKN070 TX23/2714Z TN04/2706Z
Forecast period: 2200 UTC 26 April 2018 to 0700 UTC 27 April 2018
Forecast type: BECOMING: Conditions expected to become as follows by 0100 UTC 27 April 2018
Winds: from the SW (230 degrees) at 7 MPH (6 knots; 3.1 m/s)
Visibility: 6 or more miles (10+ km)
Weather: NSW  (no significant weather)
Forecast for: LSZH (ZURICH-KLOTEN (A, CH)
Text: TAF LSZH 261725Z 2618/2724 23006KT 9999 FEW040 BKN070 TX23/2714Z TN04/2706Z
Forecast period: 0700 to 1100 UTC 27 April 2018
Forecast type: BECOMING: Conditions expected to become as follows by 0900 UTC 27 April 2018
Winds: from the ENE (60 degrees) at 7 MPH (6 knots; 3.1 m/s)
Visibility: 6 or more miles (10+ km)
Weather: NSW  (no significant weather)
Forecast for: LSZH (ZURICH-KLOTEN (A, CH)
Text: TAF LSZH 261725Z 2618/2724 23006KT 9999 FEW040 BKN070 TX23/2714Z TN04/2706Z
Forecast period: 0700 to 1100 UTC 27 April 2018
Forecast type: BECOMING: Conditions expected to become as follows by 0900 UTC 27 April 2018
Winds: from the ENE (60 degrees) at 7 MPH (6 knots; 3.1 m/s)
Visibility: 6 or more miles (10+ km)
Weather: NSW  (no significant weather)
Forecast for: LSZH (ZURICH-KLOTEN (A, CH)
Text: TAF LSZH 261725Z 2618/2724 23006KT 9999 FEW040 BKN070 TX23/2714Z TN04/2706Z
Forecast period: 1100 UTC 27 April 2018 to 0000 UTC 28 April 2018
Forecast type: BECOMING: Conditions expected to become as follows by 1400 UTC 27 April 2018
Winds: variable direction winds at 3 MPH (3 knots; 1.6 m/s)
Visibility: 6 or more miles (10+ km)
Weather: NSW  (no significant weather)
Forecast for: LSZH (ZURICH-KLOTEN (A, CH)
Text: TAF LSZH 261725Z 2618/2724 23006KT 9999 FEW040 BKN070 TX23/2714Z TN04/2706Z
Forecast period: 1100 UTC 27 April 2018 to 0000 UTC 28 April 2018
Forecast type: BECOMING: Conditions expected to become as follows by 1400 UTC 27 April 2018
Winds: variable direction winds at 3 MPH (3 knots; 1.6 m/s)
Visibility: 6 or more miles (10+ km)
Weather: NSW  (no significant weather)
Forecast for: LSZH (ZURICH-KLOTEN (A, CH)
Text: TAF LSZH 261725Z 2618/2724 23006KT 9999 FEW040 BKN070 TX23/2714Z TN04/2706Z
Forecast period: 1800 UTC 27 April 2018 to 0000 UTC 28 April 2018
Forecast type: TEMPORARY: The following changes expected for less than half the time period
Visibility: 6 or more miles (10+ km)
Clouds: scattered clouds at 5000 feet AGL
Weather: no significant weather forecast for this period
Forecast for: LSZH (ZURICH-KLOTEN (A, CH)
Text: TAF LSZH 261725Z 2618/2724 23006KT 9999 FEW040 BKN070 TX23/2714Z TN04/2706Z
Forecast period: 1800 UTC 27 April 2018 to 0000 UTC 28 April 2018
Forecast type: TEMPORARY: The following changes expected for less than half the time period
Visibility: 6 or more miles (10+ km)
Clouds: scattered clouds at 5000 feet AGL
Weather: no significant weather forecast for this period

 AIRPORT MAP

 RUNWAY INFORMATION
Runway 10 Runway length 8202 ft Runway width 197 ft
Runway elevation 1391 ft Runway displaced threshold 0 ft Runway heading 96
Runway 28 Runway length 8202 ft Runway width 197 ft
Runway elevation 1416 ft Runway displaced threshold 0 ft Runway heading 276
Runway 14 Runway length 10827 ft Runway width 197 ft
Runway elevation 1402 ft Runway displaced threshold 490 ft Runway heading 137
Runway 32 Runway length 10827 ft Runway width 197 ft
Runway elevation 1402 ft Runway displaced threshold 0 ft Runway heading 317
Runway 16 Runway length 12139 ft Runway width 197 ft
Runway elevation 1390 ft Runway displaced threshold 0 ft Runway heading 155
Runway 34 Runway length 12139 ft Runway width 197 ft
Runway elevation 1388 ft Runway displaced threshold 1541 ft Runway heading 335

 AIRPORT FREQUENCIES
Type APP Name APP Frequency 118 MHZ
Type ATIS Name ATIS Frequency 125.725 MHZ
Type CLD Name CLNC DEL Frequency 121.8 MHZ
Type DEP Name DEP Frequency 125.95 MHZ
Type GND Name GND Frequency 121.9 MHZ
Type RMP Name APRON Frequency 121.75 MHZ
Type TCA Name TERMINAL Frequency 127.75 MHZ
Type TWR Name TWR Frequency 118.1 MHZ

 AIRPORT NEAR NAVIGATION AIDS
Type VOR-DME Name Kloten Frequency 114850 KHZ
Type VOR-DME Name Zurich East Frequency 110050 KHZ



v2.6.1